Burbank, California
Current Conditions -  °F | °C
As of 9:53 AM on Thursday 29 Jan 2015 (Local Time) from KBUR Reporting Station
Clear Clear  
Wind Chill: 64°   Ceiling: Unl
Heat Index: 64°   Visibility: 10mi
Dew Point: 43°   Wind: 0mph
Humidity: 46%   Direction: NA
Pressure: 30.07"   Gusts: NA
Location:  34.18°N, 118.3°W
Report Text: KBUR 291753Z 00000KT 10SM CLR 18/06 A3007 RMK AO2 SLP173 T01780061 10183 20139 51013
Loading
Personal Weather Stations






























Interactive Weather Map New forecast layout! Learn more

10-Day Weather Forecast

Advertisements
Track Severe Weather on mobile